sensor_id;sensor_type;location;lat;lon;timestamp;temperature;humidity
60701;DHT22;46541;49.894;10.886;2023-09-12T00:00:48;19.80;99.90
60701;DHT22;46541;49.894;10.886;2023-09-12T00:03:19;19.80;99.90
60701;DHT22;46541;49.894;10.886;2023-09-12T00:05:53;19.70;99.90
60701;DHT22;46541;49.894;10.886;2023-09-12T00:08:20;19.70;99.90
60701;DHT22;46541;49.894;10.886;2023-09-12T00:10:47;19.60;99.90
60701;DHT22;46541;49.894;10.886;2023-09-12T00:13:13;19.70;99.90
60701;DHT22;46541;49.894;10.886;2023-09-12T00:15:40;19.60;99.90
60701;DHT22;46541;49.894;10.886;2023-09-12T00:18:07;19.60;99.90
60701;DHT22;46541;49.894;10.886;2023-09-12T00:20:34;19.50;99.90
60701;DHT22;46541;49.894;10.886;2023-09-12T00:23:00;19.50;99.90
60701;DHT22;46541;49.894;10.886;2023-09-12T00:25:27;19.40;99.90
60701;DHT22;46541;49.894;10.886;2023-09-12T00:27:54;19.40;99.90
60701;DHT22;46541;49.894;10.886;2023-09-12T00:30:20;19.40;99.90
60701;DHT22;46541;49.894;10.886;2023-09-12T00:32:47;19.30;99.90
60701;DHT22;46541;49.894;10.886;2023-09-12T00:35:14;19.20;99.90
60701;DHT22;46541;49.894;10.886;2023-09-12T00:37:41;19.20;99.90
60701;DHT22;46541;49.894;10.886;2023-09-12T00:40:08;19.10;99.90
60701;DHT22;46541;49.894;10.886;2023-09-12T00:42:34;19.00;99.90
60701;DHT22;46541;49.894;10.886;2023-09-12T00:45:01;19.00;99.90
60701;DHT22;46541;49.894;10.886;2023-09-12T00:47:29;19.00;99.90
60701;DHT22;46541;49.894;10.886;2023-09-12T00:49:56;19.00;99.90
60701;DHT22;46541;49.894;10.886;2023-09-12T00:52:25;19.00;99.90
60701;DHT22;46541;49.894;10.886;2023-09-12T00:54:53;19.00;99.90
60701;DHT22;46541;49.894;10.886;2023-09-12T00:57:21;19.00;99.90
60701;DHT22;46541;49.894;10.886;2023-09-12T00:59:49;19.00;99.90
60701;DHT22;46541;49.894;10.886;2023-09-12T01:02:16;18.90;99.90
60701;DHT22;46541;49.894;10.886;2023-09-12T01:04:45;18.90;99.90
60701;DHT22;46541;49.894;10.886;2023-09-12T01:07:12;18.90;99.90
60701;DHT22;46541;49.894;10.886;2023-09-12T01:09:40;18.90;99.90
60701;DHT22;46541;49.894;10.886;2023-09-12T01:12:07;18.90;99.90
60701;DHT22;46541;49.894;10.886;2023-09-12T01:14:34;18.90;99.90
60701;DHT22;46541;49.894;10.886;2023-09-12T01:17:01;18.90;99.90
60701;DHT22;46541;49.894;10.886;2023-09-12T01:19:29;18.90;99.90
60701;DHT22;46541;49.894;10.886;2023-09-12T01:22:38;18.90;99.90
60701;DHT22;46541;49.894;10.886;2023-09-12T01:25:50;18.80;99.90
60701;DHT22;46541;49.894;10.886;2023-09-12T01:28:23;18.80;99.90
60701;DHT22;46541;49.894;10.886;2023-09-12T01:30:52;18.80;99.90
60701;DHT22;46541;49.894;10.886;2023-09-12T01:33:20;18.70;99.90
60701;DHT22;46541;49.894;10.886;2023-09-12T01:35:47;18.70;99.90
60701;DHT22;46541;49.894;10.886;2023-09-12T01:38:14;18.60;99.90
60701;DHT22;46541;49.894;10.886;2023-09-12T01:40:51;18.60;99.90
60701;DHT22;46541;49.894;10.886;2023-09-12T01:43:21;18.50;99.90
60701;DHT22;46541;49.894;10.886;2023-09-12T01:45:52;18.50;99.90
60701;DHT22;46541;49.894;10.886;2023-09-12T01:48:23;18.40;99.90
60701;DHT22;46541;49.894;10.886;2023-09-12T01:50:54;18.40;99.90
60701;DHT22;46541;49.894;10.886;2023-09-12T01:53:22;18.40;99.90
60701;DHT22;46541;49.894;10.886;2023-09-12T01:55:49;18.40;99.90
60701;DHT22;46541;49.894;10.886;2023-09-12T01:58:16;18.40;99.90
60701;DHT22;46541;49.894;10.886;2023-09-12T02:00:43;18.40;99.90
60701;DHT22;46541;49.894;10.886;2023-09-12T02:03:10;18.40;99.90
60701;DHT22;46541;49.894;10.886;2023-09-12T02:05:38;18.40;99.90
60701;DHT22;46541;49.894;10.886;2023-09-12T02:08:05;18.40;99.90
60701;DHT22;46541;49.894;10.886;2023-09-12T02:10:32;18.40;99.90
60701;DHT22;46541;49.894;10.886;2023-09-12T02:12:59;18.40;99.90
60701;DHT22;46541;49.894;10.886;2023-09-12T02:15:25;18.40;99.90
60701;DHT22;46541;49.894;10.886;2023-09-12T02:17:52;18.40;99.90
60701;DHT22;46541;49.894;10.886;2023-09-12T02:20:19;18.40;99.90
60701;DHT22;46541;49.894;10.886;2023-09-12T02:22:46;18.40;99.90
60701;DHT22;46541;49.894;10.886;2023-09-12T02:25:13;18.40;99.90
60701;DHT22;46541;49.894;10.886;2023-09-12T02:27:40;18.40;99.90
60701;DHT22;46541;49.894;10.886;2023-09-12T02:30:07;18.40;99.90
60701;DHT22;46541;49.894;10.886;2023-09-12T02:32:34;18.40;99.90
60701;DHT22;46541;49.894;10.886;2023-09-12T02:35:01;18.40;99.90
60701;DHT22;46541;49.894;10.886;2023-09-12T02:37:28;18.40;99.90
60701;DHT22;46541;49.894;10.886;2023-09-12T02:39:55;18.30;99.90
60701;DHT22;46541;49.894;10.886;2023-09-12T02:42:22;18.40;99.90
60701;DHT22;46541;49.894;10.886;2023-09-12T02:44:49;18.40;99.90
60701;DHT22;46541;49.894;10.886;2023-09-12T02:47:15;18.30;99.90
60701;DHT22;46541;49.894;10.886;2023-09-12T02:49:42;18.30;99.90
60701;DHT22;46541;49.894;10.886;2023-09-12T02:52:09;18.30;99.90
60701;DHT22;46541;49.894;10.886;2023-09-12T02:54:36;18.30;99.90
60701;DHT22;46541;49.894;10.886;2023-09-12T02:57:03;18.30;99.90
60701;DHT22;46541;49.894;10.886;2023-09-12T02:59:30;18.30;99.90
60701;DHT22;46541;49.894;10.886;2023-09-12T03:01:57;18.30;99.90
60701;DHT22;46541;49.894;10.886;2023-09-12T03:04:25;18.30;99.90
60701;DHT22;46541;49.894;10.886;2023-09-12T03:06:55;18.20;99.90
60701;DHT22;46541;49.894;10.886;2023-09-12T03:09:21;18.20;99.90
60701;DHT22;46541;49.894;10.886;2023-09-12T03:11:49;18.20;99.90
60701;DHT22;46541;49.894;10.886;2023-09-12T03:14:16;18.20;99.90
60701;DHT22;46541;49.894;10.886;2023-09-12T03:16:43;18.30;99.90
60701;DHT22;46541;49.894;10.886;2023-09-12T03:19:10;18.30;99.90
60701;DHT22;46541;49.894;10.886;2023-09-12T03:21:36;18.30;99.90
60701;DHT22;46541;49.894;10.886;2023-09-12T03:24:03;18.30;99.90
60701;DHT22;46541;49.894;10.886;2023-09-12T03:26:33;18.20;99.90
60701;DHT22;46541;49.894;10.886;2023-09-12T03:29:00;18.20;99.90
60701;DHT22;46541;49.894;10.886;2023-09-12T03:31:27;18.20;99.90
60701;DHT22;46541;49.894;10.886;2023-09-12T03:33:55;18.20;99.90
60701;DHT22;46541;49.894;10.886;2023-09-12T03:36:22;18.10;99.90
60701;DHT22;46541;49.894;10.886;2023-09-12T03:38:49;18.10;99.90
60701;DHT22;46541;49.894;10.886;2023-09-12T03:41:15;18.10;99.90
60701;DHT22;46541;49.894;10.886;2023-09-12T03:43:43;18.10;99.90
60701;DHT22;46541;49.894;10.886;2023-09-12T03:46:09;18.10;99.90
60701;DHT22;46541;49.894;10.886;2023-09-12T03:48:36;18.10;99.90
60701;DHT22;46541;49.894;10.886;2023-09-12T03:51:03;18.10;99.90
60701;DHT22;46541;49.894;10.886;2023-09-12T03:53:33;18.00;99.90
60701;DHT22;46541;49.894;10.886;2023-09-12T03:56:00;18.00;99.90
60701;DHT22;46541;49.894;10.886;2023-09-12T03:58:26;18.00;99.90
60701;DHT22;46541;49.894;10.886;2023-09-12T04:00:53;18.00;99.90
60701;DHT22;46541;49.894;10.886;2023-09-12T04:03:21;18.00;99.90
60701;DHT22;46541;49.894;10.886;2023-09-12T04:05:49;18.00;99.90
60701;DHT22;46541;49.894;10.886;2023-09-12T04:08:16;17.90;99.90
60701;DHT22;46541;49.894;10.886;2023-09-12T04:10:43;18.00;99.90
60701;DHT22;46541;49.894;10.886;2023-09-12T04:13:10;17.90;99.90
60701;DHT22;46541;49.894;10.886;2023-09-12T04:15:37;17.90;99.90
60701;DHT22;46541;49.894;10.886;2023-09-12T04:18:04;18.00;99.90
60701;DHT22;46541;49.894;10.886;2023-09-12T04:20:31;18.00;99.90
60701;DHT22;46541;49.894;10.886;2023-09-12T04:23:01;18.00;99.90
60701;DHT22;46541;49.894;10.886;2023-09-12T04:25:28;18.00;99.90
60701;DHT22;46541;49.894;10.886;2023-09-12T04:27:55;18.00;99.90
60701;DHT22;46541;49.894;10.886;2023-09-12T04:30:21;18.00;99.90
60701;DHT22;46541;49.894;10.886;2023-09-12T04:32:48;18.00;99.90
60701;DHT22;46541;49.894;10.886;2023-09-12T04:35:15;17.90;99.90
60701;DHT22;46541;49.894;10.886;2023-09-12T04:37:42;17.90;99.90
60701;DHT22;46541;49.894;10.886;2023-09-12T04:40:09;17.90;99.90
60701;DHT22;46541;49.894;10.886;2023-09-12T04:42:36;17.80;99.90
60701;DHT22;46541;49.894;10.886;2023-09-12T04:45:03;17.80;99.90
60701;DHT22;46541;49.894;10.886;2023-09-12T04:47:30;17.70;99.90
60701;DHT22;46541;49.894;10.886;2023-09-12T04:49:56;17.60;99.90
60701;DHT22;46541;49.894;10.886;2023-09-12T04:52:23;17.60;99.90
60701;DHT22;46541;49.894;10.886;2023-09-12T04:54:50;17.60;99.90
60701;DHT22;46541;49.894;10.886;2023-09-12T04:57:16;17.60;99.90
60701;DHT22;46541;49.894;10.886;2023-09-12T04:59:43;17.50;99.90
60701;DHT22;46541;49.894;10.886;2023-09-12T05:02:10;17.50;99.90
60701;DHT22;46541;49.894;10.886;2023-09-12T05:04:37;17.50;99.90
60701;DHT22;46541;49.894;10.886;2023-09-12T05:07:03;17.50;99.90
60701;DHT22;46541;49.894;10.886;2023-09-12T05:09:30;17.50;99.90
60701;DHT22;46541;49.894;10.886;2023-09-12T05:11:57;17.50;99.90
60701;DHT22;46541;49.894;10.886;2023-09-12T05:14:24;17.50;99.90
60701;DHT22;46541;49.894;10.886;2023-09-12T05:16:50;17.50;99.90
60701;DHT22;46541;49.894;10.886;2023-09-12T05:19:17;17.50;99.90
60701;DHT22;46541;49.894;10.886;2023-09-12T05:21:44;17.50;99.90
60701;DHT22;46541;49.894;10.886;2023-09-12T05:24:11;17.50;99.90
60701;DHT22;46541;49.894;10.886;2023-09-12T05:26:37;17.50;99.90
60701;DHT22;46541;49.894;10.886;2023-09-12T05:29:05;17.60;99.90
60701;DHT22;46541;49.894;10.886;2023-09-12T05:31:32;17.70;99.90
60701;DHT22;46541;49.894;10.886;2023-09-12T05:33:59;17.70;99.90
60701;DHT22;46541;49.894;10.886;2023-09-12T05:36:26;17.80;99.90
60701;DHT22;46541;49.894;10.886;2023-09-12T05:38:53;17.90;99.90
60701;DHT22;46541;49.894;10.886;2023-09-12T05:41:19;17.90;99.90
60701;DHT22;46541;49.894;10.886;2023-09-12T05:43:46;17.90;99.90
60701;DHT22;46541;49.894;10.886;2023-09-12T05:46:13;18.00;99.90
60701;DHT22;46541;49.894;10.886;2023-09-12T05:48:40;18.00;99.90
60701;DHT22;46541;49.894;10.886;2023-09-12T05:51:07;18.00;99.90
60701;DHT22;46541;49.894;10.886;2023-09-12T05:53:34;18.10;99.90
60701;DHT22;46541;49.894;10.886;2023-09-12T05:56:00;18.10;99.90
60701;DHT22;46541;49.894;10.886;2023-09-12T05:58:28;18.20;99.90
60701;DHT22;46541;49.894;10.886;2023-09-12T06:00:56;18.20;99.90
60701;DHT22;46541;49.894;10.886;2023-09-12T06:03:23;18.20;99.90
60701;DHT22;46541;49.894;10.886;2023-09-12T06:05:50;18.20;99.90
60701;DHT22;46541;49.894;10.886;2023-09-12T06:08:17;18.30;99.90
60701;DHT22;46541;49.894;10.886;2023-09-12T06:10:44;18.30;99.90
60701;DHT22;46541;49.894;10.886;2023-09-12T06:13:10;18.30;99.90
60701;DHT22;46541;49.894;10.886;2023-09-12T06:15:39;18.30;99.90
60701;DHT22;46541;49.894;10.886;2023-09-12T06:18:07;18.30;99.90
60701;DHT22;46541;49.894;10.886;2023-09-12T06:20:34;18.40;99.90
60701;DHT22;46541;49.894;10.886;2023-09-12T06:23:01;18.40;99.90
60701;DHT22;46541;49.894;10.886;2023-09-12T06:25:28;18.30;99.90
60701;DHT22;46541;49.894;10.886;2023-09-12T06:27:55;18.30;99.90
60701;DHT22;46541;49.894;10.886;2023-09-12T06:30:22;18.30;99.90
60701;DHT22;46541;49.894;10.886;2023-09-12T06:32:49;18.30;99.90
60701;DHT22;46541;49.894;10.886;2023-09-12T06:35:15;18.40;99.90
60701;DHT22;46541;49.894;10.886;2023-09-12T06:37:43;18.40;99.90
60701;DHT22;46541;49.894;10.886;2023-09-12T06:40:10;18.40;99.90
60701;DHT22;46541;49.894;10.886;2023-09-12T06:42:37;18.50;99.90
60701;DHT22;46541;49.894;10.886;2023-09-12T06:45:04;18.50;99.90
60701;DHT22;46541;49.894;10.886;2023-09-12T06:47:30;18.60;99.90
60701;DHT22;46541;49.894;10.886;2023-09-12T06:49:57;18.70;99.90
60701;DHT22;46541;49.894;10.886;2023-09-12T06:52:24;18.80;99.90
60701;DHT22;46541;49.894;10.886;2023-09-12T06:54:51;18.90;99.90
60701;DHT22;46541;49.894;10.886;2023-09-12T06:57:17;19.00;99.90
60701;DHT22;46541;49.894;10.886;2023-09-12T06:59:44;19.00;99.90
60701;DHT22;46541;49.894;10.886;2023-09-12T07:02:11;19.10;99.90
60701;DHT22;46541;49.894;10.886;2023-09-12T07:04:39;19.20;99.90
60701;DHT22;46541;49.894;10.886;2023-09-12T07:07:06;19.30;99.90
60701;DHT22;46541;49.894;10.886;2023-09-12T07:09:32;19.30;99.90
60701;DHT22;46541;49.894;10.886;2023-09-12T07:12:00;19.50;99.90
60701;DHT22;46541;49.894;10.886;2023-09-12T07:14:27;19.50;99.90
60701;DHT22;46541;49.894;10.886;2023-09-12T07:16:53;19.70;99.90
60701;DHT22;46541;49.894;10.886;2023-09-12T07:19:20;19.80;99.90
60701;DHT22;46541;49.894;10.886;2023-09-12T07:21:47;19.80;99.90
60701;DHT22;46541;49.894;10.886;2023-09-12T07:24:14;19.90;99.90
60701;DHT22;46541;49.894;10.886;2023-09-12T07:26:41;20.00;99.90
60701;DHT22;46541;49.894;10.886;2023-09-12T07:29:08;20.10;99.90
60701;DHT22;46541;49.894;10.886;2023-09-12T07:31:34;20.20;99.90
60701;DHT22;46541;49.894;10.886;2023-09-12T07:34:01;20.30;99.90
60701;DHT22;46541;49.894;10.886;2023-09-12T07:36:31;20.40;99.90
60701;DHT22;46541;49.894;10.886;2023-09-12T07:38:57;20.50;99.90
60701;DHT22;46541;49.894;10.886;2023-09-12T07:41:24;20.60;99.90
60701;DHT22;46541;49.894;10.886;2023-09-12T07:43:51;20.70;99.90
60701;DHT22;46541;49.894;10.886;2023-09-12T07:46:17;20.80;99.90
60701;DHT22;46541;49.894;10.886;2023-09-12T07:48:44;20.90;99.90
60701;DHT22;46541;49.894;10.886;2023-09-12T07:51:15;21.00;99.90
60701;DHT22;46541;49.894;10.886;2023-09-12T07:53:44;21.10;99.90
60701;DHT22;46541;49.894;10.886;2023-09-12T07:56:11;21.20;99.90
60701;DHT22;46541;49.894;10.886;2023-09-12T07:58:38;21.30;99.90
60701;DHT22;46541;49.894;10.886;2023-09-12T08:01:08;21.30;99.90
60701;DHT22;46541;49.894;10.886;2023-09-12T08:03:37;21.40;99.90
60701;DHT22;46541;49.894;10.886;2023-09-12T08:06:05;21.50;99.90
60701;DHT22;46541;49.894;10.886;2023-09-12T08:08:32;21.50;99.90
60701;DHT22;46541;49.894;10.886;2023-09-12T08:10:59;21.50;99.90
60701;DHT22;46541;49.894;10.886;2023-09-12T08:13:29;21.70;99.90
60701;DHT22;46541;49.894;10.886;2023-09-12T08:15:57;21.80;99.90
60701;DHT22;46541;49.894;10.886;2023-09-12T08:18:27;22.00;99.90
60701;DHT22;46541;49.894;10.886;2023-09-12T08:20:55;22.10;99.90
60701;DHT22;46541;49.894;10.886;2023-09-12T08:23:22;22.10;99.90
60701;DHT22;46541;49.894;10.886;2023-09-12T08:25:49;22.30;99.90
60701;DHT22;46541;49.894;10.886;2023-09-12T08:28:16;22.40;99.90
60701;DHT22;46541;49.894;10.886;2023-09-12T08:30:44;22.60;99.90
60701;DHT22;46541;49.894;10.886;2023-09-12T08:33:12;22.80;99.90
60701;DHT22;46541;49.894;10.886;2023-09-12T08:35:39;22.90;99.90
60701;DHT22;46541;49.894;10.886;2023-09-12T08:38:06;23.10;99.90
60701;DHT22;46541;49.894;10.886;2023-09-12T08:40:33;23.30;99.90
60701;DHT22;46541;49.894;10.886;2023-09-12T08:43:02;23.40;99.90
60701;DHT22;46541;49.894;10.886;2023-09-12T08:45:32;23.60;99.90
60701;DHT22;46541;49.894;10.886;2023-09-12T08:48:00;23.70;99.90
60701;DHT22;46541;49.894;10.886;2023-09-12T08:50:27;24.00;99.90
60701;DHT22;46541;49.894;10.886;2023-09-12T08:52:57;24.20;99.90
60701;DHT22;46541;49.894;10.886;2023-09-12T08:55:35;24.10;99.90
60701;DHT22;46541;49.894;10.886;2023-09-12T08:58:03;24.10;99.90
60701;DHT22;46541;49.894;10.886;2023-09-12T09:00:30;24.10;99.90
60701;DHT22;46541;49.894;10.886;2023-09-12T09:02:58;24.30;99.90
60701;DHT22;46541;49.894;10.886;2023-09-12T09:05:27;24.60;99.90
60701;DHT22;46541;49.894;10.886;2023-09-12T09:07:54;24.80;99.90
60701;DHT22;46541;49.894;10.886;2023-09-12T09:10:22;24.90;99.90
60701;DHT22;46541;49.894;10.886;2023-09-12T09:13:12;24.90;99.90
60701;DHT22;46541;49.894;10.886;2023-09-12T09:15:39;24.70;99.90
60701;DHT22;46541;49.894;10.886;2023-09-12T09:18:09;24.90;99.90
60701;DHT22;46541;49.894;10.886;2023-09-12T09:20:38;25.10;99.90
60701;DHT22;46541;49.894;10.886;2023-09-12T09:23:07;25.30;99.90
60701;DHT22;46541;49.894;10.886;2023-09-12T09:25:42;25.60;99.90
60701;DHT22;46541;49.894;10.886;2023-09-12T09:28:19;25.50;99.90
60701;DHT22;46541;49.894;10.886;2023-09-12T09:30:51;25.20;99.90
60701;DHT22;46541;49.894;10.886;2023-09-12T09:33:18;25.30;99.90
60701;DHT22;46541;49.894;10.886;2023-09-12T09:35:47;25.40;99.90
60701;DHT22;46541;49.894;10.886;2023-09-12T09:38:14;25.40;99.90
60701;DHT22;46541;49.894;10.886;2023-09-12T09:40:44;25.40;99.90
60701;DHT22;46541;49.894;10.886;2023-09-12T09:43:11;25.30;99.90
60701;DHT22;46541;49.894;10.886;2023-09-12T09:45:46;25.30;99.90
60701;DHT22;46541;49.894;10.886;2023-09-12T09:48:24;25.40;99.90
60701;DHT22;46541;49.894;10.886;2023-09-12T09:51:03;25.70;99.90
60701;DHT22;46541;49.894;10.886;2023-09-12T09:53:30;26.00;99.90
60701;DHT22;46541;49.894;10.886;2023-09-12T09:56:13;26.20;99.90
60701;DHT22;46541;49.894;10.886;2023-09-12T09:58:56;26.50;99.90
60701;DHT22;46541;49.894;10.886;2023-09-12T10:01:27;26.60;99.90
60701;DHT22;46541;49.894;10.886;2023-09-12T10:03:58;26.70;99.90
60701;DHT22;46541;49.894;10.886;2023-09-12T10:06:27;26.90;99.90
60701;DHT22;46541;49.894;10.886;2023-09-12T10:08:55;27.10;99.90
60701;DHT22;46541;49.894;10.886;2023-09-12T10:11:24;27.10;99.90
60701;DHT22;46541;49.894;10.886;2023-09-12T10:13:56;27.20;99.90
60701;DHT22;46541;49.894;10.886;2023-09-12T10:16:36;27.40;99.90
60701;DHT22;46541;49.894;10.886;2023-09-12T10:19:12;27.50;99.90
60701;DHT22;46541;49.894;10.886;2023-09-12T10:22:12;27.70;99.90
60701;DHT22;46541;49.894;10.886;2023-09-12T10:24:42;27.60;99.60
60701;DHT22;46541;49.894;10.886;2023-09-12T10:27:11;27.70;99.90
60701;DHT22;46541;49.894;10.886;2023-09-12T10:29:38;27.80;99.90
60701;DHT22;46541;49.894;10.886;2023-09-12T10:32:06;27.90;99.40
60701;DHT22;46541;49.894;10.886;2023-09-12T10:34:32;27.90;99.30
60701;DHT22;46541;49.894;10.886;2023-09-12T10:37:02;27.90;99.30
60701;DHT22;46541;49.894;10.886;2023-09-12T10:39:33;28.00;99.40
60701;DHT22;46541;49.894;10.886;2023-09-12T10:42:04;28.20;99.60
60701;DHT22;46541;49.894;10.886;2023-09-12T10:44:32;28.20;99.50
60701;DHT22;46541;49.894;10.886;2023-09-12T10:47:00;28.30;99.40
60701;DHT22;46541;49.894;10.886;2023-09-12T10:49:28;28.40;98.40
60701;DHT22;46541;49.894;10.886;2023-09-12T10:51:55;28.40;98.20
60701;DHT22;46541;49.894;10.886;2023-09-12T10:54:39;28.50;98.20
60701;DHT22;46541;49.894;10.886;2023-09-12T10:57:08;28.50;98.50
60701;DHT22;46541;49.894;10.886;2023-09-12T11:02:38;29.40;97.20
60701;DHT22;46541;49.894;10.886;2023-09-12T11:05:06;29.80;96.70
60701;DHT22;46541;49.894;10.886;2023-09-12T11:12:42;29.90;95.40
60701;DHT22;46541;49.894;10.886;2023-09-12T11:15:10;30.80;95.10
60701;DHT22;46541;49.894;10.886;2023-09-12T11:20:07;31.40;92.90
60701;DHT22;46541;49.894;10.886;2023-09-12T11:22:38;32.00;92.50
60701;DHT22;46541;49.894;10.886;2023-09-12T11:25:25;32.60;91.30
60701;DHT22;46541;49.894;10.886;2023-09-12T11:28:02;33.20;89.60
60701;DHT22;46541;49.894;10.886;2023-09-12T11:30:31;33.40;87.60
60701;DHT22;46541;49.894;10.886;2023-09-12T11:32:58;32.70;87.30
60701;DHT22;46541;49.894;10.886;2023-09-12T11:35:28;32.10;88.30
60701;DHT22;46541;49.894;10.886;2023-09-12T11:37:59;31.70;88.30
60701;DHT22;46541;49.894;10.886;2023-09-12T11:43:00;31.20;89.70
60701;DHT22;46541;49.894;10.886;2023-09-12T11:45:27;30.70;88.80
60701;DHT22;46541;49.894;10.886;2023-09-12T11:47:57;30.50;90.40
60701;DHT22;46541;49.894;10.886;2023-09-12T11:50:27;30.40;90.40
60701;DHT22;46541;49.894;10.886;2023-09-12T11:53:04;30.10;90.00
60701;DHT22;46541;49.894;10.886;2023-09-12T11:55:42;30.00;90.60
60701;DHT22;46541;49.894;10.886;2023-09-12T11:58:11;30.00;91.10
60701;DHT22;46541;49.894;10.886;2023-09-12T12:00:45;30.00;90.60
60701;DHT22;46541;49.894;10.886;2023-09-12T12:03:14;29.90;91.10
60701;DHT22;46541;49.894;10.886;2023-09-12T12:05:42;30.00;91.00
60701;DHT22;46541;49.894;10.886;2023-09-12T12:08:10;30.00;91.00
60701;DHT22;46541;49.894;10.886;2023-09-12T12:10:57;29.90;91.20
60701;DHT22;46541;49.894;10.886;2023-09-12T12:13:25;29.90;91.40
60701;DHT22;46541;49.894;10.886;2023-09-12T12:15:55;29.90;90.80
60701;DHT22;46541;49.894;10.886;2023-09-12T12:18:23;29.90;90.80
60701;DHT22;46541;49.894;10.886;2023-09-12T12:20:49;30.00;91.00
60701;DHT22;46541;49.894;10.886;2023-09-12T12:23:16;29.90;90.40
60701;DHT22;46541;49.894;10.886;2023-09-12T12:25:43;30.00;90.60
60701;DHT22;46541;49.894;10.886;2023-09-12T12:28:10;29.90;90.20
60701;DHT22;46541;49.894;10.886;2023-09-12T12:30:37;29.90;90.40
60701;DHT22;46541;49.894;10.886;2023-09-12T12:33:08;29.90;89.20
60701;DHT22;46541;49.894;10.886;2023-09-12T12:36:03;29.90;88.80
60701;DHT22;46541;49.894;10.886;2023-09-12T12:38:35;29.70;89.50
60701;DHT22;46541;49.894;10.886;2023-09-12T12:41:06;29.70;89.80
60701;DHT22;46541;49.894;10.886;2023-09-12T12:43:33;29.70;90.00
60701;DHT22;46541;49.894;10.886;2023-09-12T12:45:59;29.70;88.80
60701;DHT22;46541;49.894;10.886;2023-09-12T12:48:35;29.70;89.00
60701;DHT22;46541;49.894;10.886;2023-09-12T12:51:16;29.70;90.00
60701;DHT22;46541;49.894;10.886;2023-09-12T12:53:54;29.70;89.90
60701;DHT22;46541;49.894;10.886;2023-09-12T12:56:27;29.70;89.50
60701;DHT22;46541;49.894;10.886;2023-09-12T12:58:58;29.70;89.10
60701;DHT22;46541;49.894;10.886;2023-09-12T13:01:25;29.70;88.80
60701;DHT22;46541;49.894;10.886;2023-09-12T13:03:52;29.60;88.70
60701;DHT22;46541;49.894;10.886;2023-09-12T13:06:21;29.60;88.70
60701;DHT22;46541;49.894;10.886;2023-09-12T13:08:48;29.50;87.00
60701;DHT22;46541;49.894;10.886;2023-09-12T13:11:16;29.50;86.90
60701;DHT22;46541;49.894;10.886;2023-09-12T13:13:44;29.40;87.40
60701;DHT22;46541;49.894;10.886;2023-09-12T13:16:13;29.40;85.80
60701;DHT22;46541;49.894;10.886;2023-09-12T13:18:41;29.30;86.20
60701;DHT22;46541;49.894;10.886;2023-09-12T13:21:08;29.30;86.40
60701;DHT22;46541;49.894;10.886;2023-09-12T13:23:37;29.20;85.30
60701;DHT22;46541;49.894;10.886;2023-09-12T13:26:05;29.10;85.10
60701;DHT22;46541;49.894;10.886;2023-09-12T13:28:32;29.20;83.70
60701;DHT22;46541;49.894;10.886;2023-09-12T13:30:59;29.20;84.00
60701;DHT22;46541;49.894;10.886;2023-09-12T13:33:25;29.10;83.90
60701;DHT22;46541;49.894;10.886;2023-09-12T13:35:52;29.10;83.30
60701;DHT22;46541;49.894;10.886;2023-09-12T13:38:19;29.10;84.40
60701;DHT22;46541;49.894;10.886;2023-09-12T13:40:46;29.00;83.20
60701;DHT22;46541;49.894;10.886;2023-09-12T13:43:13;28.90;82.70
60701;DHT22;46541;49.894;10.886;2023-09-12T13:45:41;28.80;82.60
60701;DHT22;46541;49.894;10.886;2023-09-12T13:48:08;28.80;83.60
60701;DHT22;46541;49.894;10.886;2023-09-12T13:50:35;28.70;83.70
60701;DHT22;46541;49.894;10.886;2023-09-12T13:53:02;28.70;84.10
60701;DHT22;46541;49.894;10.886;2023-09-12T13:55:34;28.60;83.50
60701;DHT22;46541;49.894;10.886;2023-09-12T13:58:21;28.50;82.50
60701;DHT22;46541;49.894;10.886;2023-09-12T14:00:48;28.60;82.80
60701;DHT22;46541;49.894;10.886;2023-09-12T14:03:15;28.60;83.30
60701;DHT22;46541;49.894;10.886;2023-09-12T14:05:43;28.60;84.20
60701;DHT22;46541;49.894;10.886;2023-09-12T14:08:10;28.60;83.10
60701;DHT22;46541;49.894;10.886;2023-09-12T14:10:38;28.50;82.90
60701;DHT22;46541;49.894;10.886;2023-09-12T14:13:06;28.50;82.80
60701;DHT22;46541;49.894;10.886;2023-09-12T14:15:48;28.40;83.70
60701;DHT22;46541;49.894;10.886;2023-09-12T14:18:17;28.30;82.90
60701;DHT22;46541;49.894;10.886;2023-09-12T14:20:45;28.30;83.00
60701;DHT22;46541;49.894;10.886;2023-09-12T14:23:14;28.20;83.30
60701;DHT22;46541;49.894;10.886;2023-09-12T14:25:41;28.10;83.40
60701;DHT22;46541;49.894;10.886;2023-09-12T14:28:09;28.10;83.70
60701;DHT22;46541;49.894;10.886;2023-09-12T14:30:37;28.10;83.10
60701;DHT22;46541;49.894;10.886;2023-09-12T14:33:05;28.00;83.70
60701;DHT22;46541;49.894;10.886;2023-09-12T14:35:32;28.00;82.70
60701;DHT22;46541;49.894;10.886;2023-09-12T14:37:59;28.10;82.60
60701;DHT22;46541;49.894;10.886;2023-09-12T14:40:26;28.10;83.00
60701;DHT22;46541;49.894;10.886;2023-09-12T14:42:54;28.10;83.70
60701;DHT22;46541;49.894;10.886;2023-09-12T14:45:21;28.10;85.10
60701;DHT22;46541;49.894;10.886;2023-09-12T14:47:48;28.00;85.70
60701;DHT22;46541;49.894;10.886;2023-09-12T14:50:15;28.00;85.10
60701;DHT22;46541;49.894;10.886;2023-09-12T14:52:43;28.00;84.70
60701;DHT22;46541;49.894;10.886;2023-09-12T14:55:10;28.10;84.70
60701;DHT22;46541;49.894;10.886;2023-09-12T14:57:37;28.20;83.90
60701;DHT22;46541;49.894;10.886;2023-09-12T15:00:04;28.20;85.00
60701;DHT22;46541;49.894;10.886;2023-09-12T15:02:31;28.20;82.80
60701;DHT22;46541;49.894;10.886;2023-09-12T15:05:00;28.20;82.50
60701;DHT22;46541;49.894;10.886;2023-09-12T15:07:27;28.20;82.60
60701;DHT22;46541;49.894;10.886;2023-09-12T15:09:57;28.20;83.10
60701;DHT22;46541;49.894;10.886;2023-09-12T15:12:24;28.20;83.70
60701;DHT22;46541;49.894;10.886;2023-09-12T15:14:51;28.10;85.00
60701;DHT22;46541;49.894;10.886;2023-09-12T15:17:18;28.10;84.40
60701;DHT22;46541;49.894;10.886;2023-09-12T15:19:45;28.00;84.90
60701;DHT22;46541;49.894;10.886;2023-09-12T15:22:12;28.00;85.60
60701;DHT22;46541;49.894;10.886;2023-09-12T15:24:42;27.90;84.40
60701;DHT22;46541;49.894;10.886;2023-09-12T15:27:09;28.00;85.10
60701;DHT22;46541;49.894;10.886;2023-09-12T15:29:36;28.00;84.80
60701;DHT22;46541;49.894;10.886;2023-09-12T15:32:03;28.00;84.30
60701;DHT22;46541;49.894;10.886;2023-09-12T15:34:32;28.10;83.70
60701;DHT22;46541;49.894;10.886;2023-09-12T15:37:12;28.20;84.10